Aviation Digital Data Service (ADDS)

Output produced by METARs form (1828 UTC 25 September 2020)
found at http://www.aviationweather.gov/metar/data/
 
EDDK 251820Z 25012KT 9999 FEW030 11/07 Q0998 NOSIG
EDDK 251750Z 24008KT 210V270 9999 FEW030 11/07 Q0998 NOSIG
EDDK 251720Z 25010KT 9999 FEW030 11/08 Q0998 NOSIG
EDDK 251650Z 24005KT 9999 FEW030 11/08 Q0997 NOSIG
EDDK 251620Z 29014KT 9999 -SHRA SCT037CB 11/08 Q0997 RESHRA BECMG 21010KT
EDDK 251550Z 21008KT 9999 -SHRA SCT037CB 14/07 Q0997 TEMPO SHRA
EDDK 251520Z 19007KT 160V220 9999 VCSH SCT040CB 14/09 Q0997 RESHRA NOSIG
EDDK 251450Z 18012KT 9999 -SHRA SCT035CB 14/07 Q0997 NOSIG
TAF EDDK 251700Z 2518/2624 23010KT 9999 BKN025 
     PROB30 
     TEMPO 2519/2524 26015G25KT SHRA BKN015TCU 
     BECMG 2520/2524 17007KT 
     TEMPO 2600/2607 28015G25KT 4000 SHRA BKN015TCU 
     BECMG 2602/2605 BKN012 
     PROB40 
     TEMPO 2605/2607 VRB03KT BKN008 
     BECMG 2607/2609 30008KT BKN020 
     BECMG 2618/2620 RA
       
EDGS 251750Z 23006KT 190V250 9999 FEW017 SCT034 08/06 Q0998
EDGS 251720Z 20006KT 9999 FEW017 BKN045 08/06 Q0997
EDGS 251650Z 22007KT 180V250 8000 -RA FEW010 BKN021 08/06 Q0997
EDGS 251620Z 19008KT 160V230 9999 FEW016 SCT047 09/05 Q0997
EDGS 251550Z 19008KT 150V220 9999 SCT016 09/05 Q0997
EDGS 251520Z 19009KT 160V220 9999 -RA SCT015 BKN023 09/06 Q0997
EDGS 251450Z 19008KT 160V220 9999 SCT015 BKN042 09/05 Q0997
TAF EDGS 251700Z 2518/2603 22009KT 9999 FEW015 SCT025 
     BECMG 2522/2601 BKN011 
     TEMPO 2523/2603 3500 SHRA BKN008 BKN012TCU
       
EDLW 251820Z 22010KT CAVOK 10/07 Q0996
EDLW 251750Z 21010KT CAVOK 11/07 Q0996
EDLW 251720Z 20010KT 9999 FEW027 BKN034 11/08 Q0996
EDLW 251650Z 22008KT 9999 FEW014 BKN036 12/07 Q0996
EDLW 251620Z 20011KT 9999 FEW040 13/06 Q0996
EDLW 251550Z 21010KT 9999 SCT039 14/06 Q0996
EDLW 251520Z 22011KT 9999 SCT041 14/06 Q0996
EDLW 251450Z 22009KT 9999 BKN039 BKN049 14/06 Q0996
TAF EDLW 251700Z 2518/2618 20008KT 9999 BKN035 
     TEMPO 2602/2608 VRB03KT BKN010 
     BECMG 2608/2611 36005KT 
     PROB30 
     TEMPO 2616/2618 RA
       
EDDL 251820Z 21014KT 9999 FEW017 BKN021 11/07 Q0996 NOSIG
EDDL 251750Z 22011KT 9999 FEW020 SCT040 11/07 Q0996 NOSIG
EDDL 251720Z 22014KT 9999 FEW022TCU 11/07 Q0996 NOSIG
EDDL 251650Z 22014KT 9999 FEW032TCU 12/07 Q0996 NOSIG
EDDL 251620Z 23017KT 9999 FEW032TCU 13/07 Q0996 TEMPO 20015G25KT
EDDL 251550Z 22015KT 9999 FEW032TCU 14/05 Q0996 TEMPO 20015G25KT
EDDL 251520Z 23016KT 9999 FEW032 14/06 Q0996 TEMPO 20015G25KT
EDDL 251450Z 24017KT 9999 FEW032 14/06 Q0996 TEMPO 20015G25KT
TAF EDDL 251700Z 2518/2624 19013KT 9999 BKN025 
     PROB30 
     TEMPO 2519/2524 26015G25KT SHRA BKN015TCU 
     PROB30 
     TEMPO 2600/2606 VRB03KT 4000 SHRA BKN015TCU 
     BECMG 2600/2603 BKN012 
     TEMPO 2602/2608 BKN008 
     BECMG 2604/2607 29007KT 
     BECMG 2607/2610 BKN030 
     BECMG 2618/2620 RA
       
ETNN 251820Z 21012KT 9999 FEW020 BKN040 10/07 Q0997 BLU
ETNN 251720Z 22016G27KT 9999 FEW020 SCT030 BKN050 11/07 Q0997 BLU
ETNN 251620Z 23016KT 9999 FEW020 BKN035 12/07 Q0997 BLU
ETNN 251548Z 22013KT 9999 -SHRA FEW020 BKN035TCU 12/07 Q0997 BLU
ETNN 251520Z 22015KT 9999 -SHRA FEW020 BKN035TCU 12/07 Q0997 BLU
ETNN 251448Z 22008KT 9999 FEW020 BKN035TCU 15/05 Q0996 BLU
TAF ETNN 251600Z 2517/2602 22007KT 9999 NSW BKN030 BKN080 
     TEMPO 2518/2602 24012KT 5000 SHRA SCT010 BKN020TCU 
     PROB30 2522/2602 26015G25KT 3000 SHRA BKN010CB BY ETGL